Flight Track Log - Related Links

Times and Time Zones

All times are in EDT time to prevent confusion due to time zone crossing. See the LXJ437 flight status page for this flight to view local times or setup timezone preferences in your user account.

Time Position Orientation Groundspeed Altitude Reporting Facility
EDT Latitude Longitude Course Direction KTS MPH feet Rate Location/Type
Sun 07:12:04 PM 33.6500 -117.8833 193° South 177 204 1,800  Level Southern California TRACON
Sun 07:12:45 PM 33.6103 -117.8942 193° South 188 216 3,700 1,864 Climbing Los Angeles Center
Sun 07:13:47 PM 33.5511 -117.9128 195° South 221 254 5,000 1,935 Climbing Los Angeles Center
Sun 07:14:49 PM 33.4956 -117.9528 211° Southwest 230 265 7,700 2,661 Climbing Los Angeles Center
Sun 07:15:51 PM 33.4336 -117.9992 212° Southwest 248 285 10,500 2,855 Climbing Los Angeles Center
Sun 07:16:53 PM 33.4044 -118.1044 252° West 333 383 13,600 3,484 Climbing Los Angeles Center
Sun 07:17:55 PM 33.3942 -118.2225 264° West 351 404 17,700 3,484 Climbing Los Angeles Center
Sun 07:18:57 PM 33.3861 -118.3483 266° West 372 428 20,800 2,565 Climbing Los Angeles Center
Sun 07:19:59 PM 33.5017 -118.4283 330° Northwest 431 496 23,000 1,056 Climbing Los Angeles Center
Sun 07:21:02 PM 33.6325 -118.4269 North 462 532 23,000 1,344 Level Los Angeles Center
Sun 07:22:04 PM 33.7664 -118.4300 359° North 464 534 25,800 2,613 Climbing Los Angeles Center
Sun 07:23:06 PM 33.8992 -118.4317 359° North 466 536 28,400 2,468 Climbing Los Angeles Center
Sun 07:24:08 PM 34.0169 -118.4714 344° North 442 509 30,900 1,742 Climbing Los Angeles Center
Sun 07:25:10 PM 34.1281 -118.5281 337° Northwest 435 501 32,000 581 Climbing Los Angeles Center
Sun 07:26:12 PM 34.2458 -118.5853 338° Northwest 452 520 32,100 726 Climbing Los Angeles Center
Sun 07:27:14 PM 34.3622 -118.6408 338° Northwest 451 519 33,500 919 Climbing Los Angeles Center
Sun 07:28:16 PM 34.5008 -118.7039 339° North 444 511 34,000 242 Climbing Los Angeles Center
Sun 07:29:18 PM 34.6208 -118.7572 340° North 456 525 34,000  Level Los Angeles Center
Sun 07:30:20 PM 34.7144 -118.8011 339° North 452 520 34,000  Level Los Angeles Center
Sun 07:31:22 PM 34.8542 -118.8642 340° North 448 516 34,000  Level Los Angeles Center
Sun 07:32:25 PM 34.9886 -118.9244 340° North 447 514 34,000  Level Los Angeles Center
Sun 07:34:41 PM 35.2236 -119.0319 340° North 452 520 34,000  Level Los Angeles Center
Sun 07:35:43 PM 35.3667 -119.0978 339° North 456 525 34,000  Level Los Angeles Center
Sun 07:36:45 PM 35.4864 -119.1522 340° North 459 528 34,000  Level Los Angeles Center
Sun 07:37:47 PM 35.6283 -119.2192 339° North 457 526 34,000  Level Los Angeles Center
Sun 07:38:49 PM 35.7458 -119.2747 339° North 455 524 34,000  Level Los Angeles Center
Sun 07:39:51 PM 35.8631 -119.3297 339° North 453 521 34,000  Level Los Angeles Center
Sun 07:40:53 PM 35.9811 -119.3853 339° North 455 524 34,000  Level Los Angeles Center
Sun 07:41:56 PM 36.0986 -119.4408 339° North 455 524 34,000  Level Los Angeles Center
Sun 07:42:58 PM 36.2406 -119.5083 339° North 456 525 34,000  Level Los Angeles Center
Sun 07:44:00 PM 36.3575 -119.5644 339° North 454 522 34,000  Level Los Angeles Center
Sun 07:45:04 PM 36.4739 -119.6183 340° North 457 526 34,000 -48 Level Oakland Center
Sun 07:46:06 PM 36.5928 -119.6744 339° North 457 526 33,900 -1,073 Descending Oakland Center
Sun 07:47:07 PM 36.7108 -119.7325 338° Northwest 458 527 31,800 -2,488 Descending Oakland Center
Sun 07:48:09 PM 36.8528 -119.7978 340° North 455 524 28,800 -2,683 Descending Oakland Center
Sun 07:49:10 PM 36.9475 -119.9014 319° Northwest 458 527 26,300 -2,390 Descending Oakland Center
Sun 07:50:12 PM 37.0308 -120.0194 312° West 455 524 23,900 -2,049 Descending Oakland Center
Sun 07:51:13 PM 37.1042 -120.1239 311° West 445 512 22,100 -1,854 Descending Oakland Center
Sun 07:52:15 PM 37.2008 -120.2589 312° West 435 501 20,100 -1,415 Descending Oakland Center
Sun 07:53:16 PM 37.2806 -120.3706 312° West 431 496 19,200 -1,063 Descending Oakland Center
Sun 07:53:51 PM 37.3167 -120.4333 306° West 463 533 18,400 -1,516 Descending Northern Cal TRACON
Sun 07:54:51 PM 37.4000 -120.5500 312° West 423 487 16,800 -1,500 Descending Northern Cal TRACON
Sun 07:55:51 PM 37.4667 -120.6667 306° West 413 475 15,400 -1,450 Descending Northern Cal TRACON
Sun 07:56:51 PM 37.5333 -120.7833 306° West 404 465 13,900 -1,500 Descending Northern Cal TRACON
Sun 07:57:51 PM 37.6000 -120.9000 306° West 393 452 12,400 -1,500 Descending Northern Cal TRACON
Sun 07:58:51 PM 37.6500 -121.0000 302° West 385 443 10,900 -1,400 Descending Northern Cal TRACON
Sun 07:59:51 PM 37.7167 -121.1000 310° West 317 365 9,600 -1,293 Descending Northern Cal TRACON
Sun 08:01:00 PM 37.8361 -121.1792 286° West  Level FlightAware Approximate
Sun 08:01:52 PM 37.8167 -121.2667 286° West 290 334 7,000  Level Northern Cal TRACON
Sun 08:03:39 PM 37.9000 -121.4000 308° West 275 316 5,900 -395 Descending Northern Cal TRACON
Sun 08:04:39 PM 37.9333 -121.4833 297° West 270 311 5,900  Level Northern Cal TRACON
Sun 08:05:34 PM 37.9667 -121.5500 302° West 267 307 5,900 -365 Level Northern Cal TRACON
Sun 08:06:34 PM 37.9833 -121.6500 282° West 254 292 5,200 -1,296 Descending Northern Cal TRACON
Sun 08:07:39 PM 38.0000 -121.7333 284° West 248 285 3,200 -1,095 Descending Northern Cal TRACON
Sun 08:08:40 PM 38.0167 -121.8167 284° West 218 251 2,900 -295 Descending Northern Cal TRACON
Sun 08:10:00 PM 38.0308 -121.9925 293° West  Level FlightAware Approximate
Sun 08:17:00 PM 37.9833 -122.0500 195° South  Level FlightAware Approximate
Sun 08:18:00 PM 37.9897 -122.0569 195° South  Level Estimated
Sun 08:19:00 PM 37.9897 -122.0569 195° South  Level Estimated
Sun 08:20:00 PM 37.9897 -122.0569 195° South  Level Estimated
Sun 08:21:00 PM 37.9897 -122.0569 195° South  Level Estimated

Login

Don't have an account? Register now (free) for customized features, flight alerts, and more!